EFHK/HEL METAR and TAF weather

Enter ICAO airport designator
Station Type Date Time Source
EFHK METAR 2023/04/02 08:20 UTC NOAA

EFHK 020820Z 34012KT CAVOK 01/M08 Q1023 NOSIG


Station Type Date Time Source
EFHK Decoded METAR 2023/04/02 08:20 UTC NOAA

Helsinki-Vantaa, Finland (EFHK) 60-19N 024-58E 56M
Apr 02, 2023 - 04:20 AM EDT / 2023.04.02 0820 UTC
Wind: from the NNW (340 degrees) at 14 MPH (12 KT):0
Visibility: greater than 7 mile(s):0
Temperature: 33 F (1 C)
Windchill: 23 F (-5 C):1
Dew Point: 17 F (-8 C)
Relative Humidity: 50%
Pressure (altimeter): 30.21 in. Hg (1023 hPa)
ob: EFHK 020820Z 34012KT CAVOK 01/M08 Q1023 NOSIG
cycle: 8

Station Type Date Time Source
EFHK TAF 2023/04/02 06:42 UTC NOAA

TAF TAF EFHK 020524Z 0206/0306 35009KT CAVOK

Example: see airport list